createdAt,value
2023-01-15T00:02:18.114Z,43.40
2023-01-15T00:04:45.395Z,38.20
2023-01-15T00:07:12.774Z,51.83
2023-01-15T00:09:40.018Z,39.15
2023-01-15T00:12:07.511Z,40.78
2023-01-15T00:14:34.839Z,47.90
2023-01-15T00:17:02.037Z,36.10
2023-01-15T00:19:29.334Z,40.80
2023-01-15T00:21:58.324Z,40.45
2023-01-15T00:24:44.001Z,50.17
2023-01-15T00:27:30.105Z,46.33
2023-01-15T00:29:57.404Z,43.10
2023-01-15T00:32:27.786Z,46.53
2023-01-15T00:34:56.362Z,54.13
2023-01-15T00:37:23.629Z,49.63
2023-01-15T00:39:50.930Z,54.60
2023-01-15T00:42:18.279Z,48.92
2023-01-15T00:44:46.918Z,45.80
2023-01-15T00:47:15.294Z,37.78
2023-01-15T00:49:43.080Z,49.53
2023-01-15T00:52:11.624Z,49.45
2023-01-15T00:54:38.889Z,49.50
2023-01-15T00:57:06.199Z,43.65
2023-01-15T00:59:33.477Z,47.03
2023-01-15T01:02:00.853Z,44.47
2023-01-15T01:04:28.283Z,48.38
2023-01-15T01:06:55.877Z,41.33
2023-01-15T01:09:23.195Z,45.60
2023-01-15T01:11:50.640Z,45.40
2023-01-15T01:14:18.110Z,48.35
2023-01-15T01:16:45.473Z,46.13
2023-01-15T01:19:15.818Z,54.50
2023-01-15T01:21:44.549Z,49.83
2023-01-15T01:24:13.947Z,44.10
2023-01-15T01:26:41.870Z,47.17
2023-01-15T01:29:18.579Z,52.75
2023-01-15T01:31:46.681Z,46.75
2023-01-15T01:34:14.475Z,45.95
2023-01-15T01:36:43.334Z,45.58
2023-01-15T01:39:17.171Z,45.80
2023-01-15T01:41:44.912Z,43.72
2023-01-15T01:44:34.700Z,47.45
2023-01-15T01:47:05.387Z,50.95
2023-01-15T01:49:34.214Z,39.00
2023-01-15T01:52:07.832Z,44.92
2023-01-15T01:54:38.376Z,52.05
2023-01-15T01:57:07.449Z,42.00
2023-01-15T01:59:36.764Z,41.40
2023-01-15T02:02:04.613Z,34.55
2023-01-15T02:04:32.316Z,40.17
2023-01-15T02:07:01.664Z,48.70
2023-01-15T02:09:29.053Z,37.28
2023-01-15T02:12:02.764Z,48.67
2023-01-15T02:14:39.721Z,59.10
2023-01-15T02:17:23.105Z,51.15
2023-01-15T02:20:02.662Z,51.97
2023-01-15T02:22:48.651Z,46.67
2023-01-15T02:25:34.212Z,46.75
2023-01-15T02:28:15.371Z,39.40
2023-01-15T02:30:47.517Z,42.97
2023-01-15T02:33:24.593Z,40.05
2023-01-15T02:36:00.900Z,41.88
2023-01-15T02:38:36.961Z,40.10
2023-01-15T02:41:07.603Z,42.33
2023-01-15T02:43:40.243Z,40.08
2023-01-15T02:46:09.748Z,34.85
2023-01-15T02:48:41.584Z,34.45
2023-01-15T02:51:16.467Z,40.75
2023-01-15T02:53:49.192Z,42.47
2023-01-15T02:56:24.421Z,36.30
2023-01-15T02:58:59.567Z,32.75
2023-01-15T03:01:33.828Z,33.22
2023-01-15T03:04:27.799Z,39.22
2023-01-15T03:07:09.782Z,30.75
2023-01-15T03:09:39.193Z,35.58
2023-01-15T03:12:18.131Z,35.20
2023-01-15T03:15:08.607Z,34.20
2023-01-15T03:17:55.397Z,34.30
2023-01-15T03:20:29.294Z,34.05
2023-01-15T03:23:03.690Z,43.25
2023-01-15T03:25:37.849Z,31.75
2023-01-15T03:28:08.137Z,37.53
2023-01-15T03:30:36.645Z,38.63
2023-01-15T03:33:04.681Z,39.13
2023-01-15T03:35:46.724Z,37.05
2023-01-15T03:38:26.234Z,34.15
2023-01-15T03:41:22.202Z,31.60
2023-01-15T03:44:10.157Z,34.20
2023-01-15T03:46:43.124Z,25.48
2023-01-15T03:49:25.246Z,28.23
2023-01-15T03:52:03.867Z,34.22
2023-01-15T03:54:44.951Z,28.38
2023-01-15T03:57:38.118Z,37.03
2023-01-15T04:00:38.156Z,31.60
2023-01-15T04:03:09.596Z,38.45
2023-01-15T04:05:38.705Z,38.25
2023-01-15T04:08:08.676Z,33.50
2023-01-15T04:10:36.771Z,40.00
2023-01-15T04:13:06.470Z,45.28
2023-01-15T04:15:33.781Z,48.08
2023-01-15T04:18:02.495Z,43.25
2023-01-15T04:20:31.277Z,39.05
2023-01-15T04:22:58.628Z,44.45
2023-01-15T04:25:25.909Z,44.60
2023-01-15T04:27:56.557Z,39.70
2023-01-15T04:30:24.133Z,45.60
2023-01-15T04:32:52.163Z,46.13
2023-01-15T04:35:20.053Z,41.15
2023-01-15T04:37:47.533Z,34.10
2023-01-15T04:40:35.042Z,39.55
2023-01-15T04:43:20.880Z,34.90
2023-01-15T04:45:48.253Z,41.42
2023-01-15T04:48:15.530Z,46.20
2023-01-15T04:50:42.742Z,39.60
2023-01-15T04:53:09.988Z,39.72
2023-01-15T04:55:37.254Z,41.92
2023-01-15T04:58:04.487Z,44.95
2023-01-15T05:00:31.786Z,44.50
2023-01-15T05:02:59.146Z,37.03
2023-01-15T05:05:26.356Z,38.50
2023-01-15T05:07:53.796Z,32.25
2023-01-15T05:10:21.037Z,44.47
2023-01-15T05:12:48.304Z,32.55
2023-01-15T05:15:15.646Z,36.15
2023-01-15T05:17:42.922Z,29.80
2023-01-15T05:20:10.888Z,30.45
2023-01-15T05:22:38.137Z,28.42
2023-01-15T05:25:05.809Z,32.67
2023-01-15T05:27:33.013Z,33.15
2023-01-15T05:30:00.302Z,31.67
2023-01-15T05:32:27.620Z,33.45
2023-01-15T05:34:54.980Z,28.95
2023-01-15T05:37:22.219Z,27.05
2023-01-15T05:39:49.509Z,28.52
2023-01-15T05:42:16.719Z,31.63
2023-01-15T05:44:44.007Z,32.03
2023-01-15T05:47:11.211Z,33.88
2023-01-15T05:49:38.454Z,30.50
2023-01-15T05:52:06.002Z,33.90
2023-01-15T05:54:34.908Z,33.05
2023-01-15T05:57:03.669Z,38.67
2023-01-15T05:59:32.892Z,36.67
2023-01-15T06:02:00.360Z,31.65
2023-01-15T06:04:27.666Z,38.65
2023-01-15T06:06:56.009Z,38.25
2023-01-15T06:09:24.335Z,36.15
2023-01-15T06:11:53.688Z,41.55
2023-01-15T06:14:21.542Z,46.33
2023-01-15T06:16:48.907Z,45.25
2023-01-15T06:19:16.333Z,46.10
2023-01-15T06:21:43.846Z,44.88
2023-01-15T06:24:11.685Z,47.95
2023-01-15T06:26:39.738Z,43.50
2023-01-15T06:29:07.088Z,42.97
2023-01-15T06:31:34.519Z,37.72
2023-01-15T06:34:01.833Z,35.63
2023-01-15T06:36:29.586Z,42.85
2023-01-15T06:38:57.156Z,40.75
2023-01-15T06:41:45.032Z,44.78
2023-01-15T06:44:33.563Z,40.10
2023-01-15T06:47:21.234Z,39.80
2023-01-15T06:49:57.951Z,41.08
2023-01-15T06:52:27.665Z,39.55
2023-01-15T06:54:54.989Z,53.85
2023-01-15T06:57:22.405Z,49.67
2023-01-15T06:59:50.416Z,53.40
2023-01-15T07:02:18.378Z,46.50
2023-01-15T07:04:46.872Z,52.15
2023-01-15T07:07:15.993Z,52.97
2023-01-15T07:09:43.360Z,60.55
2023-01-15T07:12:10.949Z,55.60
2023-01-15T07:14:38.259Z,60.97
2023-01-15T07:17:05.528Z,50.45
2023-01-15T07:19:32.896Z,56.47
2023-01-15T07:22:00.187Z,57.65
2023-01-15T07:24:27.471Z,65.68
2023-01-15T07:26:54.916Z,55.72
2023-01-15T07:29:23.385Z,63.00
2023-01-15T07:31:51.248Z,58.35
2023-01-15T07:34:19.031Z,64.32
2023-01-15T07:36:46.399Z,50.67
2023-01-15T07:39:13.698Z,44.72
2023-01-15T07:41:59.786Z,50.55
2023-01-15T07:44:45.689Z,48.15
2023-01-15T07:47:42.312Z,49.35
2023-01-15T07:50:14.467Z,46.47
2023-01-15T07:52:41.792Z,49.85
2023-01-15T07:55:12.611Z,54.03
2023-01-15T07:57:41.563Z,54.25
2023-01-15T08:00:12.374Z,57.65
2023-01-15T08:02:40.463Z,53.17
2023-01-15T08:05:09.315Z,42.58
2023-01-15T08:07:41.017Z,47.15
2023-01-15T08:10:13.281Z,42.85
2023-01-15T08:12:59.918Z,40.72
2023-01-15T08:15:32.020Z,36.50
2023-01-15T08:17:59.345Z,38.47
2023-01-15T08:20:27.386Z,38.92
2023-01-15T08:22:54.768Z,44.25
2023-01-15T08:25:25.015Z,45.42
2023-01-15T08:27:53.601Z,43.30
2023-01-15T08:30:25.022Z,44.80
2023-01-15T08:32:52.835Z,42.40
2023-01-15T08:35:20.277Z,41.53
2023-01-15T08:37:47.748Z,38.97
2023-01-15T08:40:15.115Z,40.75
2023-01-15T08:42:42.578Z,38.08
2023-01-15T08:45:10.462Z,43.25
2023-01-15T08:47:38.016Z,45.30
2023-01-15T08:50:07.624Z,54.38
2023-01-15T08:52:34.989Z,44.97
2023-01-15T08:55:02.362Z,47.92
2023-01-15T08:57:29.771Z,45.20
2023-01-15T08:59:57.042Z,46.03
2023-01-15T09:02:24.329Z,44.88
2023-01-15T09:04:52.700Z,48.30
2023-01-15T09:07:20.267Z,55.85
2023-01-15T09:09:47.645Z,52.63
2023-01-15T09:12:14.920Z,51.65
2023-01-15T09:14:56.565Z,45.45
2023-01-15T09:17:29.493Z,45.30
2023-01-15T09:19:56.874Z,46.03
2023-01-15T09:22:25.389Z,47.92
2023-01-15T09:24:52.652Z,40.28
2023-01-15T09:27:19.989Z,39.28
2023-01-15T09:29:47.244Z,39.97
2023-01-15T09:32:14.521Z,34.78
2023-01-15T09:34:41.788Z,35.33
2023-01-15T09:37:09.418Z,41.67
2023-01-15T09:39:40.245Z,35.05
2023-01-15T09:42:10.485Z,32.53
2023-01-15T09:44:46.575Z,33.08
2023-01-15T09:47:18.162Z,32.00
2023-01-15T09:49:45.328Z,31.10
2023-01-15T09:52:25.632Z,31.92
2023-01-15T09:55:10.127Z,34.97
2023-01-15T09:57:37.901Z,33.72
2023-01-15T10:00:07.259Z,32.42
2023-01-15T10:02:48.412Z,29.65
2023-01-15T10:05:24.768Z,31.63
2023-01-15T10:07:52.057Z,30.63
2023-01-15T10:10:23.957Z,34.13
2023-01-15T10:12:57.895Z,33.22
2023-01-15T10:15:38.159Z,35.22
2023-01-15T10:18:08.802Z,34.28
2023-01-15T10:21:07.453Z,35.63
2023-01-15T10:24:02.831Z,33.80
2023-01-15T10:26:43.095Z,34.10
2023-01-15T10:29:26.617Z,34.05
2023-01-15T10:32:01.318Z,33.40
2023-01-15T10:35:10.177Z,37.53
2023-01-15T10:37:45.669Z,32.38
2023-01-15T10:40:50.154Z,32.28
2023-01-15T10:43:36.184Z,30.95
2023-01-15T10:46:12.924Z,32.92
2023-01-15T10:48:46.011Z,33.15
2023-01-15T10:51:23.174Z,33.65
2023-01-15T10:53:56.648Z,32.17
2023-01-15T10:56:35.680Z,32.90
2023-01-15T10:59:08.713Z,32.93
2023-01-15T11:01:37.883Z,33.25
2023-01-15T11:04:06.526Z,30.20
2023-01-15T11:06:35.327Z,30.50
2023-01-15T11:09:11.780Z,31.13
2023-01-15T11:12:18.817Z,29.98
2023-01-15T11:15:05.449Z,28.92
2023-01-15T11:18:00.810Z,28.35
2023-01-15T11:20:34.686Z,25.02
2023-01-15T11:23:28.602Z,27.13
2023-01-15T11:25:59.413Z,29.40
2023-01-15T11:28:40.730Z,27.33
2023-01-15T11:31:10.058Z,25.42
2023-01-15T11:33:38.291Z,25.00
2023-01-15T11:36:21.788Z,24.75
2023-01-15T11:38:50.925Z,25.90
2023-01-15T11:41:46.829Z,24.15
2023-01-15T11:44:34.065Z,24.10
2023-01-15T11:47:19.951Z,23.70
2023-01-15T11:50:13.036Z,21.52
2023-01-15T11:52:55.129Z,22.30
2023-01-15T11:55:25.966Z,24.20
2023-01-15T11:57:54.198Z,22.42
2023-01-15T12:00:22.983Z,22.17
2023-01-15T12:02:55.014Z,23.27
2023-01-15T12:05:34.650Z,23.70
2023-01-15T12:08:13.717Z,21.75
2023-01-15T12:11:21.339Z,24.20
2023-01-15T12:14:20.221Z,24.95
2023-01-15T12:17:02.621Z,25.05
2023-01-15T12:19:41.556Z,26.65
2023-01-15T12:22:33.716Z,24.33
2023-01-15T12:25:43.091Z,26.35
2023-01-15T12:28:17.859Z,22.77
2023-01-15T12:31:03.861Z,26.15
2023-01-15T12:33:53.643Z,27.02
2023-01-15T12:36:29.634Z,26.90
2023-01-15T12:39:01.517Z,30.52
2023-01-15T12:42:13.727Z,30.40
2023-01-15T12:45:00.999Z,30.27
2023-01-15T12:47:42.872Z,29.42
2023-01-15T12:50:27.396Z,26.67
2023-01-15T12:53:04.363Z,26.13
2023-01-15T12:55:38.081Z,28.45
2023-01-15T12:58:16.365Z,27.92
2023-01-15T13:00:45.354Z,28.85
2023-01-15T13:03:28.439Z,29.33
2023-01-15T13:06:05.545Z,29.75
2023-01-15T13:08:54.828Z,28.80
2023-01-15T13:11:22.564Z,32.63
2023-01-15T13:13:58.730Z,28.98
2023-01-15T13:16:33.492Z,30.45
2023-01-15T13:19:20.873Z,27.55
2023-01-15T13:21:53.108Z,29.27
2023-01-15T13:24:41.510Z,30.05
2023-01-15T13:27:24.524Z,29.60
2023-01-15T13:30:06.987Z,28.13
2023-01-15T13:32:48.661Z,28.55
2023-01-15T13:35:25.054Z,27.90
2023-01-15T13:37:56.439Z,30.20
2023-01-15T13:40:28.596Z,31.30
2023-01-15T13:42:56.540Z,29.38
2023-01-15T13:45:31.511Z,29.63
2023-01-15T13:48:06.609Z,31.95
2023-01-15T13:50:40.394Z,31.63
2023-01-15T13:53:26.341Z,32.08
2023-01-15T13:56:02.527Z,31.42
2023-01-15T13:58:32.805Z,30.38
2023-01-15T14:01:23.567Z,29.88
2023-01-15T14:04:18.108Z,30.98
2023-01-15T14:06:50.541Z,32.70
2023-01-15T14:09:20.661Z,28.27
2023-01-15T14:12:06.902Z,30.25
2023-01-15T14:15:01.539Z,33.80
2023-01-15T14:17:47.554Z,29.77
2023-01-15T14:20:36.854Z,32.30
2023-01-15T14:23:28.914Z,27.90
2023-01-15T14:26:14.471Z,34.60
2023-01-15T14:28:53.288Z,30.65
2023-01-15T14:31:28.720Z,32.28
2023-01-15T14:34:16.392Z,35.72
2023-01-15T14:36:46.334Z,33.88
2023-01-15T14:42:32.850Z,33.00
2023-01-15T14:45:05.680Z,34.65
2023-01-15T14:47:37.332Z,33.40
2023-01-15T14:50:39.039Z,35.63
2023-01-15T14:53:15.269Z,35.67
2023-01-15T14:55:51.558Z,35.08
2023-01-15T14:58:21.650Z,34.90
2023-01-15T15:00:55.724Z,34.65
2023-01-15T15:03:43.523Z,36.15
2023-01-15T15:06:12.639Z,35.97
2023-01-15T15:08:43.110Z,39.63
2023-01-15T15:11:37.480Z,41.63
2023-01-15T15:14:07.421Z,42.30
2023-01-15T15:19:26.636Z,35.92
2023-01-15T15:21:57.732Z,38.83
2023-01-15T15:24:30.020Z,39.53
2023-01-15T15:26:57.316Z,43.72
2023-01-15T15:29:24.531Z,55.22
2023-01-15T15:31:58.038Z,55.33
2023-01-15T15:34:34.071Z,49.42
2023-01-15T15:37:05.016Z,47.22
2023-01-15T15:39:43.383Z,48.88
2023-01-15T15:42:55.579Z,48.35
2023-01-15T15:45:44.495Z,49.05
2023-01-15T15:48:37.807Z,51.87
2023-01-15T15:51:22.399Z,50.88
2023-01-15T15:53:49.677Z,50.42
2023-01-15T15:56:17.933Z,51.95
2023-01-15T15:58:46.429Z,50.00
2023-01-15T16:01:14.173Z,52.30
2023-01-15T16:03:48.519Z,48.45
2023-01-15T16:06:24.701Z,46.55
2023-01-15T16:08:54.973Z,54.08
2023-01-15T16:11:24.758Z,54.60
2023-01-15T16:13:54.640Z,57.72
2023-01-15T16:16:26.137Z,54.88
2023-01-15T16:18:56.286Z,50.35
2023-01-15T16:21:35.793Z,52.83
2023-01-15T16:24:08.482Z,52.47
2023-01-15T16:26:44.803Z,53.13
2023-01-15T16:29:23.690Z,50.95
2023-01-15T16:31:51.876Z,52.58
2023-01-15T16:34:22.319Z,57.47
2023-01-15T16:36:49.845Z,58.72
2023-01-15T16:39:45.824Z,55.00
2023-01-15T16:42:32.699Z,52.70
2023-01-15T16:45:18.520Z,61.65
2023-01-15T16:48:08.809Z,66.63
2023-01-15T16:50:42.281Z,63.83
2023-01-15T16:53:36.783Z,69.97
2023-01-15T16:56:05.206Z,61.13
2023-01-15T16:58:38.531Z,59.33
2023-01-15T17:01:46.577Z,64.70
2023-01-15T17:04:28.677Z,61.15
2023-01-15T17:07:02.558Z,67.60
2023-01-15T17:09:33.436Z,63.63
2023-01-15T17:12:06.771Z,66.00
2023-01-15T17:14:34.005Z,60.10
2023-01-15T17:17:23.309Z,55.70
2023-01-15T17:19:52.498Z,52.80
2023-01-15T17:22:31.419Z,51.55
2023-01-15T17:25:01.101Z,51.33
2023-01-15T17:27:30.255Z,53.58
2023-01-15T17:29:57.550Z,53.58
2023-01-15T17:32:36.082Z,53.20
2023-01-15T17:35:03.623Z,51.90
2023-01-15T17:37:30.945Z,51.95
2023-01-15T17:39:58.264Z,54.05
2023-01-15T17:42:25.479Z,52.17
2023-01-15T17:44:52.681Z,58.15
2023-01-15T17:47:19.946Z,51.70
2023-01-15T17:49:47.231Z,47.75
2023-01-15T17:52:19.343Z,46.10
2023-01-15T17:55:05.373Z,45.33
2023-01-15T17:57:51.643Z,49.20
2023-01-15T18:00:37.691Z,49.45
2023-01-15T18:03:23.566Z,48.60
2023-01-15T18:05:51.913Z,45.67
2023-01-15T18:08:19.491Z,45.90
2023-01-15T18:10:46.735Z,44.40
2023-01-15T18:13:13.998Z,46.25
2023-01-15T18:15:41.496Z,43.42
2023-01-15T18:18:08.742Z,43.70
2023-01-15T18:20:36.013Z,43.50
2023-01-15T18:23:03.267Z,44.47
2023-01-15T18:25:30.480Z,43.83
2023-01-15T18:27:57.765Z,41.00
2023-01-15T18:30:25.028Z,40.47
2023-01-15T18:32:52.301Z,41.67
2023-01-15T18:35:19.563Z,43.80
2023-01-15T18:37:46.763Z,42.85
2023-01-15T18:40:14.667Z,41.80
2023-01-15T18:43:00.495Z,41.75
2023-01-15T18:45:46.142Z,40.70
2023-01-15T18:48:13.443Z,42.00
2023-01-15T18:50:40.723Z,41.35
2023-01-15T18:53:08.677Z,40.80
2023-01-15T18:55:35.972Z,38.78
2023-01-15T18:58:03.416Z,39.22
2023-01-15T19:00:30.750Z,40.72
2023-01-15T19:02:58.012Z,36.70
2023-01-15T19:05:25.392Z,36.30
2023-01-15T19:07:52.665Z,36.38
2023-01-15T19:10:19.912Z,37.08
2023-01-15T19:12:47.267Z,34.80
2023-01-15T19:15:36.351Z,35.92
2023-01-15T19:18:23.973Z,35.40
2023-01-15T19:20:51.327Z,34.08
2023-01-15T19:23:20.604Z,34.15
2023-01-15T19:25:51.426Z,31.15
2023-01-15T19:28:20.574Z,33.58
2023-01-15T19:31:12.043Z,32.30
2023-01-15T19:33:39.517Z,32.30
2023-01-15T19:36:07.069Z,30.38
2023-01-15T19:38:38.304Z,31.42
2023-01-15T19:41:30.744Z,31.50
2023-01-15T19:44:16.541Z,31.92
2023-01-15T19:47:02.929Z,35.22
2023-01-15T19:49:54.102Z,33.97
2023-01-15T19:52:37.811Z,34.80
2023-01-15T19:55:08.437Z,36.63
2023-01-15T19:57:35.658Z,35.35
2023-01-15T20:00:05.024Z,34.75
2023-01-15T20:02:36.740Z,35.17
2023-01-15T20:05:05.583Z,36.03
2023-01-15T20:07:33.055Z,34.42
2023-01-15T20:10:00.657Z,34.05
2023-01-15T20:12:47.885Z,34.08
2023-01-15T20:15:15.216Z,34.65
2023-01-15T20:17:42.527Z,38.13
2023-01-15T20:20:11.285Z,40.08
2023-01-15T20:22:38.677Z,35.90
2023-01-15T20:25:06.562Z,37.58
2023-01-15T20:27:35.959Z,40.38
2023-01-15T20:30:10.618Z,35.97
2023-01-15T20:32:40.004Z,36.47
2023-01-15T20:35:09.405Z,38.15
2023-01-15T20:37:36.700Z,33.75
2023-01-15T20:40:05.485Z,35.33
2023-01-15T20:42:51.409Z,34.28
2023-01-15T20:45:18.777Z,33.42
2023-01-15T20:48:04.622Z,31.13
2023-01-15T20:50:34.479Z,34.92
2023-01-15T20:53:02.683Z,36.08
2023-01-15T20:55:45.851Z,36.58
2023-01-15T20:58:17.181Z,35.53
2023-01-15T21:00:44.450Z,36.33
2023-01-15T21:03:12.104Z,40.42
2023-01-15T21:05:39.378Z,41.72
2023-01-15T21:08:06.585Z,37.92
2023-01-15T21:10:33.794Z,34.20
2023-01-15T21:13:01.016Z,30.52
2023-01-15T21:15:28.258Z,29.73
2023-01-15T21:17:55.453Z,29.23
2023-01-15T21:20:22.700Z,28.60
2023-01-15T21:22:50.007Z,29.58
2023-01-15T21:25:17.416Z,29.90
2023-01-15T21:27:44.734Z,28.00
2023-01-15T21:30:12.314Z,31.35
2023-01-15T21:32:39.615Z,32.08
2023-01-15T21:35:07.692Z,33.22
2023-01-15T21:37:34.924Z,32.72
2023-01-15T21:40:02.245Z,31.90
2023-01-15T21:42:47.815Z,31.95
2023-01-15T21:45:15.202Z,33.13
2023-01-15T21:47:42.582Z,32.65
2023-01-15T21:50:10.168Z,30.92
2023-01-15T21:52:37.567Z,32.63
2023-01-15T21:55:05.411Z,31.70
2023-01-15T22:01:15.592Z,31.35
2023-01-15T22:03:42.975Z,33.22
2023-01-15T22:06:10.707Z,32.58
2023-01-15T22:08:38.022Z,33.53
2023-01-15T22:11:06.941Z,34.45
2023-01-15T22:13:35.295Z,40.58
2023-01-15T22:16:05.635Z,45.92
2023-01-15T22:18:34.188Z,43.33
2023-01-15T22:21:15.630Z,47.20
2023-01-15T22:23:43.224Z,40.15
2023-01-15T22:26:22.109Z,42.85
2023-01-15T22:28:49.417Z,42.47
2023-01-15T22:31:17.929Z,43.03
2023-01-15T22:33:46.322Z,43.28
2023-01-15T22:36:14.814Z,41.17
2023-01-15T22:38:42.091Z,41.35
2023-01-15T22:41:09.849Z,45.72
2023-01-15T22:43:37.229Z,42.55
2023-01-15T22:46:09.876Z,41.58
2023-01-15T22:48:37.411Z,42.83
2023-01-15T22:51:05.204Z,44.80
2023-01-15T22:53:32.474Z,40.33
2023-01-15T22:56:00.317Z,45.83
2023-01-15T22:58:27.556Z,44.95
2023-01-15T23:00:56.003Z,44.75
2023-01-15T23:03:23.827Z,44.53
2023-01-15T23:05:51.041Z,43.00
2023-01-15T23:08:18.350Z,42.58
2023-01-15T23:10:47.555Z,43.13
2023-01-15T23:13:14.813Z,43.38
2023-01-15T23:15:42.225Z,43.55
2023-01-15T23:18:09.474Z,41.53
2023-01-15T23:20:36.663Z,43.05
2023-01-15T23:23:03.916Z,41.95
2023-01-15T23:25:31.103Z,41.53
2023-01-15T23:27:58.286Z,41.30
2023-01-15T23:30:25.549Z,42.10
2023-01-15T23:32:52.756Z,41.70
2023-01-15T23:35:20.136Z,41.10
2023-01-15T23:37:47.675Z,41.75
2023-01-15T23:40:15.342Z,40.83
2023-01-15T23:43:01.084Z,40.78
2023-01-15T23:45:46.606Z,42.70
2023-01-15T23:48:13.827Z,39.83
2023-01-15T23:50:41.072Z,40.60
2023-01-15T23:53:08.309Z,42.78
2023-01-15T23:55:35.592Z,40.92
2023-01-15T23:58:02.843Z,41.70
